createdAt,value
2019-05-13T00:02:10.063Z,3.70
2019-05-13T00:04:40.734Z,3.15
2019-05-13T00:07:13.330Z,2.58
2019-05-13T00:09:44.270Z,3.02
2019-05-13T00:12:14.789Z,3.65
2019-05-13T00:14:45.123Z,1.90
2019-05-13T00:17:15.455Z,4.15
2019-05-13T00:19:45.793Z,3.58
2019-05-13T00:22:16.116Z,2.00
2019-05-13T00:24:46.461Z,3.08
2019-05-13T00:27:16.754Z,2.45
2019-05-13T00:29:47.086Z,2.52
2019-05-13T00:32:17.882Z,2.98
2019-05-13T00:34:49.821Z,2.70
2019-05-13T00:37:20.672Z,2.80
2019-05-13T00:39:51.042Z,3.10
2019-05-13T00:42:21.366Z,3.15
2019-05-13T00:44:53.242Z,4.08
2019-05-13T00:47:23.700Z,3.15
2019-05-13T00:49:54.212Z,2.35
2019-05-13T00:52:24.577Z,2.62
2019-05-13T00:54:54.872Z,3.17
2019-05-13T00:57:25.430Z,2.85
2019-05-13T00:59:55.733Z,3.50
2019-05-13T01:02:26.147Z,3.65
2019-05-13T01:04:56.504Z,2.60
2019-05-13T01:07:28.927Z,2.75
2019-05-13T01:09:58.773Z,2.95
2019-05-13T01:12:29.112Z,4.45
2019-05-13T01:14:59.524Z,2.90
2019-05-13T01:17:30.880Z,5.20
2019-05-13T01:20:01.165Z,1.92
2019-05-13T01:22:31.505Z,2.30
2019-05-13T01:25:03.969Z,2.35
2019-05-13T01:27:33.928Z,2.15
2019-05-13T01:30:05.442Z,2.83
2019-05-13T01:32:37.389Z,2.05
2019-05-13T01:35:07.700Z,2.12
2019-05-13T01:37:42.208Z,3.65
2019-05-13T01:40:10.290Z,1.90
2019-05-13T01:42:40.622Z,2.35
2019-05-13T01:45:13.477Z,2.05
2019-05-13T01:47:44.263Z,1.98
2019-05-13T01:50:14.904Z,2.33
2019-05-13T01:52:45.222Z,2.00
2019-05-13T01:55:15.627Z,2.65
2019-05-13T01:57:45.967Z,2.35
2019-05-13T02:00:16.359Z,2.20
2019-05-13T02:02:48.110Z,2.65
2019-05-13T02:05:18.478Z,2.30
2019-05-13T02:07:57.710Z,2.15
2019-05-13T02:10:39.734Z,2.70
2019-05-13T02:13:10.125Z,2.35
2019-05-13T02:15:40.415Z,1.95
2019-05-13T02:18:13.330Z,1.90
2019-05-13T02:20:44.388Z,2.02
2019-05-13T02:23:14.921Z,3.05
2019-05-13T02:25:45.618Z,3.27
2019-05-13T02:28:15.951Z,2.92
2019-05-13T02:30:46.238Z,1.92
2019-05-13T02:33:17.143Z,2.45
2019-05-13T02:35:47.468Z,3.00
2019-05-13T02:38:24.517Z,2.10
2019-05-13T02:40:52.660Z,2.10
2019-05-13T02:43:23.146Z,2.52
2019-05-13T02:45:54.279Z,2.12
2019-05-13T02:48:24.765Z,2.17
2019-05-13T02:50:55.155Z,2.70
2019-05-13T02:53:25.480Z,2.72
2019-05-13T02:55:55.800Z,2.08
2019-05-13T02:58:26.634Z,2.50
2019-05-13T03:00:56.944Z,3.15
2019-05-13T03:03:27.343Z,1.90
2019-05-13T03:05:57.631Z,2.60
2019-05-13T03:08:44.740Z,2.83
2019-05-13T03:11:02.669Z,3.35
2019-05-13T03:13:32.642Z,2.20
2019-05-13T03:16:13.306Z,3.10
2019-05-13T03:18:43.639Z,2.70
2019-05-13T03:21:14.227Z,2.15
2019-05-13T03:23:44.706Z,2.77
2019-05-13T03:26:15.053Z,2.80
2019-05-13T03:28:45.394Z,3.35
2019-05-13T03:31:17.607Z,2.37
2019-05-13T03:33:48.499Z,2.35
2019-05-13T03:36:24.790Z,2.30
2019-05-13T03:39:05.099Z,2.30
2019-05-13T03:41:27.721Z,2.15
2019-05-13T03:44:02.568Z,3.08
2019-05-13T03:46:35.993Z,2.33
2019-05-13T03:49:13.299Z,2.10
2019-05-13T03:51:42.905Z,2.30
2019-05-13T03:54:14.472Z,3.10
2019-05-13T03:56:45.933Z,2.98
2019-05-13T03:59:16.231Z,2.40
2019-05-13T04:01:46.649Z,2.45
2019-05-13T04:04:17.692Z,3.17
2019-05-13T04:06:48.197Z,3.10
2019-05-13T04:09:27.578Z,2.62
2019-05-13T04:11:52.588Z,2.62
2019-05-13T04:14:23.432Z,2.62
2019-05-13T04:16:53.857Z,2.12
2019-05-13T04:19:24.205Z,2.70
2019-05-13T04:21:54.998Z,3.62
2019-05-13T04:24:25.475Z,2.52
2019-05-13T04:26:55.754Z,2.67
2019-05-13T04:29:26.102Z,4.28
2019-05-13T04:31:56.407Z,2.80
2019-05-13T04:34:26.855Z,2.58
2019-05-13T04:36:57.142Z,2.83
2019-05-13T04:39:41.882Z,3.25
2019-05-13T04:42:02.020Z,3.02
2019-05-13T04:44:32.459Z,5.08
2019-05-13T04:47:03.893Z,4.30
2019-05-13T04:49:35.227Z,2.47
2019-05-13T04:52:05.499Z,2.15
2019-05-13T04:54:35.918Z,3.20
2019-05-13T04:57:06.220Z,3.27
2019-05-13T04:59:40.348Z,3.30
2019-05-13T05:02:50.262Z,2.65
2019-05-13T05:05:32.631Z,4.00
2019-05-13T05:08:37.519Z,2.77
2019-05-13T05:11:25.945Z,4.53
2019-05-13T05:14:17.460Z,3.85
2019-05-13T05:17:46.830Z,3.52
2019-05-13T05:20:42.071Z,4.10
2019-05-13T05:23:21.410Z,2.95
2019-05-13T05:26:23.530Z,2.80
2019-05-13T05:29:17.102Z,2.47
2019-05-13T05:32:21.476Z,4.12
2019-05-13T05:35:16.889Z,2.65
2019-05-13T05:38:26.181Z,3.45
2019-05-13T05:40:58.925Z,4.62
2019-05-13T05:43:31.517Z,3.47
2019-05-13T05:46:04.110Z,4.47
2019-05-13T05:48:36.063Z,4.75
2019-05-13T05:51:10.062Z,3.67
2019-05-13T05:53:43.255Z,4.28
2019-05-13T05:56:16.775Z,2.67
2019-05-13T05:58:47.927Z,3.05
2019-05-13T06:01:23.312Z,4.15
2019-05-13T06:03:54.906Z,3.08
2019-05-13T06:06:27.392Z,3.47
2019-05-13T06:08:57.759Z,3.33
2019-05-13T06:11:28.339Z,2.33
2019-05-13T06:13:59.162Z,3.77
2019-05-13T06:16:31.873Z,3.60
2019-05-13T06:19:01.666Z,2.90
2019-05-13T06:21:32.246Z,4.03
2019-05-13T06:24:02.960Z,2.90
2019-05-13T06:26:34.454Z,4.60
2019-05-13T06:29:05.056Z,4.10
2019-05-13T06:31:36.257Z,3.27
2019-05-13T06:34:06.684Z,3.55
2019-05-13T06:36:38.518Z,2.72
2019-05-13T06:39:12.143Z,3.02
2019-05-13T06:41:42.114Z,2.83
2019-05-13T06:44:12.401Z,3.08
2019-05-13T06:46:42.765Z,3.40
2019-05-13T06:49:14.088Z,3.52
2019-05-13T06:51:44.456Z,3.58
2019-05-13T06:54:15.934Z,4.10
2019-05-13T06:56:46.326Z,3.12
2019-05-13T06:59:16.706Z,5.20
2019-05-13T07:01:47.033Z,3.37
2019-05-13T07:04:17.404Z,2.83
2019-05-13T07:06:51.482Z,3.60
2019-05-13T07:09:21.721Z,5.62
2019-05-13T07:11:52.194Z,3.67
2019-05-13T07:14:22.529Z,3.05
2019-05-13T07:16:52.902Z,3.50
2019-05-13T07:19:23.864Z,4.15
2019-05-13T07:21:54.349Z,3.90
2019-05-13T07:24:24.654Z,3.47
2019-05-13T07:26:54.994Z,4.22
2019-05-13T07:29:25.352Z,3.80
2019-05-13T07:31:55.808Z,3.45
2019-05-13T07:34:26.187Z,3.30
2019-05-13T07:36:58.173Z,3.45
2019-05-13T07:39:28.540Z,3.37
2019-05-13T07:42:04.350Z,3.65
2019-05-13T07:44:32.360Z,3.17
2019-05-13T07:47:03.892Z,3.10
2019-05-13T07:49:34.338Z,3.40
2019-05-13T07:52:06.156Z,2.67
2019-05-13T07:54:36.510Z,4.83
2019-05-13T07:57:06.824Z,4.23
2019-05-13T07:59:37.244Z,5.75
2019-05-13T08:02:07.573Z,3.50
2019-05-13T08:04:38.054Z,4.53
2019-05-13T08:07:08.456Z,5.30
2019-05-13T08:09:38.802Z,3.50
2019-05-13T08:12:11.924Z,4.55
2019-05-13T08:14:43.447Z,3.87
2019-05-13T08:17:13.462Z,3.55
2019-05-13T08:19:44.017Z,3.50
2019-05-13T08:22:14.384Z,3.77
2019-05-13T08:24:44.744Z,4.30
2019-05-13T08:27:15.073Z,4.40
2019-05-13T08:29:45.618Z,5.40
2019-05-13T08:32:16.238Z,3.37
2019-05-13T08:34:54.229Z,4.28
2019-05-13T08:37:18.621Z,5.00
2019-05-13T08:39:52.141Z,3.42
2019-05-13T08:42:24.960Z,3.53
2019-05-13T08:44:57.082Z,5.25
2019-05-13T08:47:31.260Z,4.50
2019-05-13T08:50:04.319Z,5.67
2019-05-13T08:52:33.944Z,4.00
2019-05-13T08:55:04.776Z,4.00
2019-05-13T08:57:41.840Z,4.80
2019-05-13T09:00:13.750Z,6.40
2019-05-13T09:02:45.642Z,5.20
2019-05-13T09:05:21.560Z,3.40
2019-05-13T09:07:53.187Z,5.58
2019-05-13T09:10:23.768Z,4.97
2019-05-13T09:12:55.040Z,5.45
2019-05-13T09:15:28.395Z,6.67
2019-05-13T09:17:58.652Z,4.83
2019-05-13T09:20:37.581Z,5.45
2019-05-13T09:23:17.719Z,5.07
2019-05-13T09:25:48.852Z,6.63
2019-05-13T09:28:22.155Z,4.00
2019-05-13T09:30:53.332Z,6.83
2019-05-13T09:33:23.835Z,4.37
2019-05-13T09:35:54.270Z,4.90
2019-05-13T09:38:26.877Z,6.90
2019-05-13T09:40:57.205Z,6.53
2019-05-13T09:43:27.586Z,4.90
2019-05-13T09:45:58.211Z,4.93
2019-05-13T09:48:28.628Z,5.50
2019-05-13T09:50:59.120Z,5.07
2019-05-13T09:53:32.601Z,4.77
2019-05-13T09:56:03.430Z,4.33
2019-05-13T09:58:34.021Z,5.57
2019-05-13T10:01:04.366Z,5.73
2019-05-13T10:03:52.907Z,5.80
2019-05-13T10:06:07.152Z,4.33
2019-05-13T10:08:38.614Z,4.80
2019-05-13T10:11:09.312Z,4.67
2019-05-13T10:13:39.628Z,4.43
2019-05-13T10:16:12.234Z,5.00
2019-05-13T10:18:42.463Z,5.83
2019-05-13T10:21:12.973Z,4.40
2019-05-13T10:23:43.289Z,5.00
2019-05-13T10:26:14.656Z,4.70
2019-05-13T10:28:45.246Z,5.93
2019-05-13T10:31:15.588Z,6.03
2019-05-13T10:33:45.889Z,4.83
2019-05-13T10:36:16.393Z,6.57
2019-05-13T10:38:46.688Z,6.83
2019-05-13T10:41:18.114Z,4.57
2019-05-13T10:43:51.794Z,5.77
2019-05-13T10:46:22.099Z,5.37
2019-05-13T10:48:54.086Z,7.70
2019-05-13T10:51:24.422Z,5.70
2019-05-13T10:53:59.461Z,6.03
2019-05-13T10:56:27.173Z,6.70
2019-05-13T10:58:57.484Z,7.67
2019-05-13T11:01:27.824Z,5.97
2019-05-13T11:03:58.124Z,6.50
2019-05-13T11:06:28.498Z,6.37
2019-05-13T11:09:02.004Z,5.30
2019-05-13T11:11:33.291Z,7.80
2019-05-13T11:14:10.873Z,5.00
2019-05-13T11:16:36.508Z,7.73
2019-05-13T11:19:06.828Z,5.30
2019-05-13T11:21:37.114Z,5.00
2019-05-13T11:24:07.488Z,5.30
2019-05-13T11:26:37.826Z,5.03
2019-05-13T11:29:08.154Z,7.13
2019-05-13T11:31:38.840Z,8.80
2019-05-13T11:34:09.150Z,7.17
2019-05-13T11:36:43.103Z,5.80
2019-05-13T11:39:12.987Z,6.17
2019-05-13T11:41:43.492Z,6.87
2019-05-13T11:44:16.753Z,6.03
2019-05-13T11:46:45.752Z,5.27
2019-05-13T11:49:16.498Z,6.13
2019-05-13T11:51:47.138Z,4.90
2019-05-13T11:54:17.452Z,4.40
2019-05-13T11:56:50.476Z,5.03
2019-05-13T11:59:22.059Z,4.60
2019-05-13T12:01:53.895Z,6.20
2019-05-13T12:04:24.291Z,5.67
2019-05-13T12:06:55.867Z,5.07
2019-05-13T12:09:27.540Z,3.90
2019-05-13T12:11:57.888Z,3.43
2019-05-13T12:15:14.914Z,4.40
2019-05-13T12:17:02.315Z,4.17
2019-05-13T12:19:32.496Z,4.30
2019-05-13T12:22:03.082Z,4.40
2019-05-13T12:24:33.986Z,4.50
2019-05-13T12:27:04.434Z,3.20
2019-05-13T12:29:34.928Z,3.80
2019-05-13T12:32:05.439Z,4.43
2019-05-13T12:34:40.439Z,3.90
2019-05-13T12:37:07.914Z,3.43
2019-05-13T12:39:43.005Z,4.30
2019-05-13T12:42:13.640Z,5.07
2019-05-13T12:45:00.449Z,3.60
2019-05-13T12:47:16.100Z,3.70
2019-05-13T12:49:46.517Z,4.30
2019-05-13T12:52:17.042Z,5.00
2019-05-13T12:54:47.485Z,3.90
2019-05-13T12:57:18.046Z,3.30
2019-05-13T12:59:48.474Z,4.00
2019-05-13T13:02:19.062Z,3.80
2019-05-13T13:05:08.788Z,3.10
2019-05-13T13:07:22.148Z,3.70
2019-05-13T13:09:53.927Z,4.33
2019-05-13T13:12:34.390Z,3.43
2019-05-13T13:14:56.677Z,3.90
2019-05-13T13:17:28.298Z,3.70
2019-05-13T13:20:06.055Z,3.10
2019-05-13T13:22:32.058Z,3.90
2019-05-13T13:25:04.893Z,2.70
2019-05-13T13:27:59.997Z,3.20
2019-05-13T13:30:08.712Z,3.47
2019-05-13T13:32:39.224Z,3.67
2019-05-13T13:35:14.727Z,4.70
2019-05-13T13:37:45.935Z,3.50
2019-05-13T13:40:24.446Z,3.70
2019-05-13T13:43:06.946Z,3.70
2019-05-13T13:46:05.813Z,3.00
2019-05-13T13:48:12.975Z,4.20
2019-05-13T13:51:04.070Z,3.20
2019-05-13T13:53:33.223Z,2.60
2019-05-13T13:56:03.786Z,4.03
2019-05-13T13:58:34.136Z,3.37
2019-05-13T14:01:11.513Z,2.60
2019-05-13T14:03:36.441Z,2.80
2019-05-13T14:06:07.124Z,2.17
2019-05-13T14:08:37.409Z,2.60
2019-05-13T14:11:11.469Z,2.43
2019-05-13T14:13:42.561Z,3.90
2019-05-13T14:16:24.771Z,2.90
2019-05-13T14:18:45.091Z,3.97
2019-05-13T14:21:15.446Z,3.20
2019-05-13T14:23:45.770Z,4.13
2019-05-13T14:26:16.156Z,3.30
2019-05-13T14:28:46.528Z,4.00
2019-05-13T14:31:16.864Z,2.53
2019-05-13T14:33:47.203Z,3.60
2019-05-13T14:36:17.880Z,2.70
2019-05-13T14:38:48.208Z,3.07
2019-05-13T14:41:21.956Z,2.17
2019-05-13T14:43:52.352Z,2.23
2019-05-13T14:46:27.353Z,2.83
2019-05-13T14:48:54.929Z,2.70
2019-05-13T14:51:25.332Z,4.00
2019-05-13T14:53:55.693Z,2.97
2019-05-13T14:56:26.774Z,3.60
2019-05-13T14:58:57.124Z,2.57
2019-05-13T15:01:27.546Z,2.87
2019-05-13T15:03:57.930Z,3.07
2019-05-13T15:06:28.256Z,3.67
2019-05-13T15:08:58.580Z,3.67
2019-05-13T15:11:32.374Z,3.07
2019-05-13T15:14:02.574Z,2.80
2019-05-13T15:16:32.909Z,3.03
2019-05-13T15:19:03.311Z,3.70
2019-05-13T15:21:33.616Z,3.40
2019-05-13T15:24:03.975Z,3.20
2019-05-13T15:26:34.312Z,4.70
2019-05-13T15:29:05.157Z,3.27
2019-05-13T15:31:36.569Z,3.75
2019-05-13T15:34:06.984Z,2.70
2019-05-13T15:36:37.345Z,3.25
2019-05-13T15:39:08.210Z,3.75
2019-05-13T15:41:41.747Z,3.37
2019-05-13T15:44:12.098Z,3.33
2019-05-13T15:46:42.516Z,2.95
2019-05-13T15:49:12.926Z,4.28
2019-05-13T15:51:43.275Z,3.20
2019-05-13T15:54:15.577Z,4.07
2019-05-13T15:56:46.228Z,3.93
2019-05-13T15:59:16.584Z,3.02
2019-05-13T16:01:48.115Z,3.12
2019-05-13T16:04:18.395Z,3.97
2019-05-13T16:06:51.989Z,4.53
2019-05-13T16:09:23.638Z,3.35
2019-05-13T16:11:57.047Z,4.00
2019-05-13T16:14:27.430Z,4.22
2019-05-13T16:16:57.765Z,4.50
2019-05-13T16:19:28.550Z,3.30
2019-05-13T16:22:01.202Z,4.70
2019-05-13T16:24:32.163Z,3.27
2019-05-13T16:27:02.823Z,5.17
2019-05-13T16:29:35.197Z,4.08
2019-05-13T16:32:05.797Z,3.20
2019-05-13T16:34:36.238Z,5.40
2019-05-13T16:37:06.571Z,4.53
2019-05-13T16:39:36.906Z,4.15
2019-05-13T16:42:08.124Z,3.42
2019-05-13T16:44:38.440Z,3.52
2019-05-13T16:47:09.111Z,4.05
2019-05-13T16:49:41.124Z,4.72
2019-05-13T16:52:11.956Z,4.90
2019-05-13T16:54:42.678Z,4.10
2019-05-13T16:57:13.124Z,3.72
2019-05-13T16:59:43.831Z,4.00
2019-05-13T17:02:14.208Z,3.75
2019-05-13T17:04:44.550Z,4.83
2019-05-13T17:07:15.238Z,4.75
2019-05-13T17:09:45.569Z,4.95
2019-05-13T17:12:16.368Z,4.92
2019-05-13T17:14:46.748Z,4.70
2019-05-13T17:17:17.120Z,5.00
2019-05-13T17:19:47.451Z,4.55
2019-05-13T17:22:18.260Z,5.20
2019-05-13T17:24:48.661Z,6.62
2019-05-13T17:27:21.241Z,6.75
2019-05-13T17:29:51.733Z,5.67
2019-05-13T17:32:23.150Z,4.78
2019-05-13T17:34:53.506Z,5.58
2019-05-13T17:37:23.878Z,4.55
2019-05-13T17:39:54.264Z,5.45
2019-05-13T17:42:24.670Z,5.95
2019-05-13T17:44:55.359Z,5.45
2019-05-13T17:47:25.686Z,5.47
2019-05-13T17:49:56.111Z,5.15
2019-05-13T17:52:26.542Z,5.08
2019-05-13T17:54:56.920Z,6.10
2019-05-13T17:57:27.270Z,5.65
2019-05-13T17:59:57.710Z,6.45
2019-05-13T18:02:31.294Z,7.47
2019-05-13T18:05:02.053Z,5.80
2019-05-13T18:07:33.724Z,4.25
2019-05-13T18:10:05.533Z,5.08
2019-05-13T18:12:38.980Z,5.47
2019-05-13T18:15:11.364Z,4.90
2019-05-13T18:17:41.926Z,4.97
2019-05-13T18:20:13.329Z,4.47
2019-05-13T18:22:44.770Z,6.90
2019-05-13T18:25:15.186Z,5.75
2019-05-13T18:27:45.768Z,6.37
2019-05-13T18:30:16.218Z,6.85
2019-05-13T18:32:48.851Z,5.62
2019-05-13T18:35:21.874Z,8.28
2019-05-13T18:37:52.555Z,6.97
2019-05-13T18:40:22.900Z,4.62
2019-05-13T18:42:53.968Z,4.28
2019-05-13T18:45:24.303Z,4.37
2019-05-13T18:47:54.702Z,5.50
2019-05-13T18:50:25.049Z,5.05
2019-05-13T18:52:55.398Z,5.80
2019-05-13T18:55:41.443Z,5.30
2019-05-13T18:58:23.079Z,6.58
2019-05-13T19:00:54.066Z,5.00
2019-05-13T19:03:24.528Z,5.25
2019-05-13T19:05:54.931Z,3.37
2019-05-13T19:08:25.312Z,5.33
2019-05-13T19:10:56.010Z,5.25
2019-05-13T19:13:26.450Z,6.05
2019-05-13T19:15:57.162Z,6.83
2019-05-13T19:18:27.522Z,5.65
2019-05-13T19:20:57.884Z,5.00
2019-05-13T19:23:28.206Z,4.45
2019-05-13T19:25:58.583Z,7.72
2019-05-13T19:28:28.892Z,5.53
2019-05-13T19:30:59.277Z,6.25
2019-05-13T19:33:29.669Z,8.90
2019-05-13T19:36:01.424Z,7.83
2019-05-13T19:38:32.171Z,8.20
2019-05-13T19:41:02.641Z,6.22
2019-05-13T19:43:33.219Z,6.55
2019-05-13T19:46:03.675Z,7.75
2019-05-13T19:48:34.142Z,7.40
2019-05-13T19:51:04.476Z,7.20
2019-05-13T19:53:34.827Z,6.05
2019-05-13T19:56:05.137Z,6.97
2019-05-13T19:58:35.506Z,8.80
2019-05-13T20:01:06.139Z,9.30
2019-05-13T20:03:36.597Z,4.70
2019-05-13T20:06:06.900Z,6.28
2019-05-13T20:08:37.278Z,7.62
2019-05-13T20:11:07.765Z,7.62
2019-05-13T20:13:38.237Z,8.13
2019-05-13T20:16:08.715Z,6.53
2019-05-13T20:18:41.444Z,7.53
2019-05-13T20:21:13.507Z,8.20
2019-05-13T20:23:43.515Z,7.78
2019-05-13T20:26:13.942Z,7.33
2019-05-13T20:28:44.341Z,6.65
2019-05-13T20:31:15.042Z,10.25
2019-05-13T20:33:45.450Z,7.78
2019-05-13T20:36:15.751Z,9.83
2019-05-13T20:38:46.187Z,9.50
2019-05-13T20:41:16.546Z,9.45
2019-05-13T20:43:47.545Z,8.05
2019-05-13T20:46:17.902Z,8.00
2019-05-13T20:48:51.797Z,10.40
2019-05-13T20:51:21.969Z,9.05
2019-05-13T20:53:52.448Z,10.88
2019-05-13T20:56:22.879Z,7.83
2019-05-13T20:58:53.458Z,11.88
2019-05-13T21:01:23.962Z,7.45
2019-05-13T21:03:55.182Z,9.40
2019-05-13T21:06:25.650Z,9.70
2019-05-13T21:08:56.331Z,10.58
2019-05-13T21:11:26.763Z,10.75
2019-05-13T21:14:01.035Z,7.25
2019-05-13T21:16:31.643Z,6.05
2019-05-13T21:19:02.004Z,5.55
2019-05-13T21:21:44.249Z,7.80
2019-05-13T21:24:15.764Z,4.47
2019-05-13T21:26:46.772Z,5.85
2019-05-13T21:29:29.128Z,4.60
2019-05-13T21:32:01.120Z,3.90
2019-05-13T21:34:31.772Z,5.45
2019-05-13T21:37:02.516Z,4.92
2019-05-13T21:39:33.077Z,6.28
2019-05-13T21:42:03.411Z,3.90
2019-05-13T21:44:34.086Z,4.83
2019-05-13T21:47:04.380Z,4.40
2019-05-13T21:49:34.758Z,4.00
2019-05-13T21:52:05.485Z,4.83
2019-05-13T21:54:35.818Z,3.85
2019-05-13T21:57:06.122Z,4.37
2019-05-13T21:59:36.450Z,4.53
2019-05-13T22:02:08.161Z,4.53
2019-05-13T22:04:41.317Z,4.40
2019-05-13T22:07:12.217Z,4.75
2019-05-13T22:09:42.655Z,6.30
2019-05-13T22:12:12.982Z,4.47
2019-05-13T22:14:44.662Z,4.47
2019-05-13T22:17:15.014Z,3.60
2019-05-13T22:19:45.398Z,3.45
2019-05-13T22:22:15.734Z,4.62
2019-05-13T22:24:46.088Z,4.90
2019-05-13T22:27:16.452Z,4.40
2019-05-13T22:29:46.786Z,4.47
2019-05-13T22:32:17.088Z,4.37
2019-05-13T22:34:47.488Z,4.00
2019-05-13T22:37:36.840Z,4.70
2019-05-13T22:40:07.284Z,4.42
2019-05-13T22:42:37.670Z,3.87
2019-05-13T22:45:08.156Z,4.03
2019-05-13T22:47:38.512Z,4.08
2019-05-13T22:50:11.464Z,3.77
2019-05-13T22:52:41.987Z,4.00
2019-05-13T22:55:12.438Z,3.83
2019-05-13T22:57:42.855Z,3.33
2019-05-13T23:00:13.466Z,5.83
2019-05-13T23:02:45.434Z,5.62
2019-05-13T23:05:17.166Z,6.62
2019-05-13T23:07:47.557Z,4.70
2019-05-13T23:10:17.871Z,3.33
2019-05-13T23:12:48.622Z,4.58
2019-05-13T23:15:21.282Z,5.17
2019-05-13T23:17:52.078Z,4.53
2019-05-13T23:20:22.467Z,4.65
2019-05-13T23:22:52.808Z,5.05
2019-05-13T23:25:23.866Z,5.15
2019-05-13T23:27:54.208Z,5.55
2019-05-13T23:30:24.484Z,5.10
2019-05-13T23:32:54.818Z,4.58
2019-05-13T23:35:25.185Z,3.65
2019-05-13T23:37:55.584Z,6.30
2019-05-13T23:40:25.888Z,3.85
2019-05-13T23:42:56.554Z,5.70
2019-05-13T23:45:28.090Z,5.30
2019-05-13T23:47:58.477Z,8.38
2019-05-13T23:50:31.945Z,6.33
2019-05-13T23:53:01.684Z,3.72
2019-05-13T23:55:33.124Z,3.25
2019-05-13T23:58:03.422Z,8.70
